createdAt,value
2018-06-11T16:03:12.690Z,30.00
2018-06-11T16:05:44.809Z,29.90
2018-06-11T16:08:20.282Z,29.80
2018-06-11T16:11:14.043Z,29.60
2018-06-11T16:13:57.965Z,29.80
2018-06-11T16:16:32.588Z,29.60
2018-06-11T16:19:04.687Z,29.50
2018-06-11T16:50:46.484Z,29.40
2018-06-11T16:53:17.165Z,29.20
2018-06-11T16:55:47.935Z,28.70
2018-06-11T16:58:18.668Z,28.70
2018-06-11T17:03:19.880Z,28.60
2018-06-11T17:05:50.677Z,28.60
2018-06-11T17:08:21.578Z,28.60
2018-06-11T18:01:44.138Z,28.50
2018-06-11T18:04:15.301Z,27.90
2018-06-11T18:06:46.694Z,27.80
2018-06-11T18:09:17.400Z,27.80
2018-06-11T18:16:48.540Z,27.60
2018-06-11T18:19:20.305Z,27.60
2018-06-11T18:21:52.850Z,27.50
2018-06-11T18:24:23.748Z,27.40
2018-06-11T18:29:24.531Z,27.20
2018-06-11T18:31:55.513Z,27.10
2018-06-11T18:34:26.274Z,26.90
2018-06-11T18:36:56.994Z,26.90
2018-06-11T18:39:27.729Z,26.80
2018-06-11T18:44:28.563Z,26.70
2018-06-11T18:46:59.240Z,26.70
2018-06-11T18:49:29.997Z,26.60
2018-06-11T18:52:00.858Z,26.50
2018-06-11T18:54:31.814Z,26.50
2018-06-11T18:57:02.746Z,26.40
2018-06-11T18:59:34.251Z,26.40
2018-06-11T19:02:05.272Z,26.40
2018-06-11T19:04:36.293Z,26.30
2018-06-11T19:07:07.301Z,26.30
2018-06-11T19:09:38.173Z,26.20
2018-06-11T19:12:09.124Z,26.10
2018-06-11T19:14:40.101Z,26.10
2018-06-11T19:17:11.120Z,26.10
2018-06-11T19:19:42.006Z,26.00
2018-06-11T19:22:12.967Z,26.00
2018-06-11T19:27:14.293Z,25.80
2018-06-11T19:29:45.340Z,25.70
2018-06-11T19:32:16.267Z,25.70
2018-06-11T19:34:47.223Z,25.60
2018-06-11T19:37:18.129Z,25.50
2018-06-11T19:39:49.022Z,25.50
2018-06-11T19:42:19.855Z,25.40
2018-06-11T19:44:55.048Z,25.40
2018-06-11T19:47:25.933Z,25.40
2018-06-11T19:49:56.820Z,25.30
2018-06-11T19:52:30.256Z,25.30
2018-06-11T19:55:01.924Z,25.20
2018-06-11T19:57:33.028Z,25.20
2018-06-11T20:00:03.964Z,25.10
2018-06-11T20:02:34.815Z,25.00
2018-06-11T20:05:21.891Z,25.00
2018-06-11T21:22:20.834Z,24.80
2018-06-11T21:24:54.238Z,23.30
2018-06-11T21:27:26.227Z,23.20
2018-06-11T21:29:57.126Z,23.10
2018-06-11T21:34:58.313Z,23.00
2018-06-11T21:37:29.101Z,23.00
2018-06-11T21:40:02.390Z,22.90
2018-06-11T21:42:33.359Z,22.90
2018-06-11T21:45:04.230Z,22.80
2018-06-11T21:47:35.086Z,22.70
2018-06-11T21:50:05.982Z,22.70
2018-06-11T21:52:36.922Z,22.60
2018-06-11T21:55:07.882Z,22.50
2018-06-11T21:57:38.686Z,22.40
2018-06-11T22:00:09.804Z,22.40
2018-06-11T22:02:46.430Z,22.30
2018-06-11T22:05:17.330Z,22.30
2018-06-11T22:07:48.282Z,22.20
2018-06-11T22:10:19.065Z,22.20
2018-06-11T22:12:49.965Z,22.10
2018-06-11T22:15:20.839Z,22.10
2018-06-11T22:17:51.719Z,22.10
2018-06-11T22:25:23.463Z,22.10
2018-06-11T22:27:54.374Z,22.00
2018-06-11T22:30:25.269Z,22.00
2018-06-11T22:35:26.474Z,21.90
2018-06-11T22:37:57.376Z,21.90
2018-06-11T22:40:28.360Z,21.90
2018-06-11T22:42:59.348Z,21.90
2018-06-11T22:45:31.333Z,21.90
2018-06-11T22:48:03.130Z,21.90
2018-06-11T22:50:33.952Z,21.80
2018-06-11T22:53:04.782Z,21.80
2018-06-11T22:55:35.674Z,21.80
2018-06-11T22:58:06.432Z,21.80
2018-06-11T23:03:07.549Z,21.60
2018-06-11T23:05:38.466Z,21.60
2018-06-11T23:08:09.221Z,21.60
2018-06-11T23:10:40.100Z,21.50
2018-06-11T23:13:10.957Z,21.40
2018-06-11T23:15:41.784Z,21.40
2018-06-11T23:18:12.551Z,21.20
2018-06-11T23:20:44.475Z,21.20
2018-06-11T23:23:15.461Z,21.20
2018-06-11T23:25:46.291Z,21.20
2018-06-11T23:28:17.158Z,21.20
2018-06-11T23:30:47.864Z,21.20
2018-06-11T23:33:18.687Z,21.10
2018-06-11T23:35:49.481Z,21.10
2018-06-11T23:40:50.628Z,21.20
2018-06-11T23:43:21.357Z,21.20
2018-06-11T23:45:52.125Z,21.20
2018-06-11T23:48:22.949Z,21.10
2018-06-11T23:50:53.691Z,21.00
2018-06-11T23:53:24.407Z,21.00
2018-06-11T23:55:57.007Z,21.10
2018-06-11T23:58:27.815Z,21.10
